createdAt,value
2022-11-15T00:01:18.855Z,11.48
2022-11-15T00:04:05.329Z,11.58
2022-11-15T00:06:50.999Z,11.43
2022-11-15T00:09:36.804Z,11.58
2022-11-15T00:12:22.580Z,11.63
2022-11-15T00:15:08.615Z,11.45
2022-11-15T00:17:54.204Z,11.35
2022-11-15T00:20:40.071Z,11.42
2022-11-15T00:23:25.935Z,11.38
2022-11-15T00:26:12.539Z,11.46
2022-11-15T00:28:58.396Z,11.28
2022-11-15T00:31:43.977Z,11.37
2022-11-15T00:34:29.859Z,11.47
2022-11-15T00:37:15.555Z,11.16
2022-11-15T00:40:01.216Z,11.67
2022-11-15T00:42:47.015Z,11.67
2022-11-15T00:45:32.720Z,11.54
2022-11-15T00:48:18.274Z,11.27
2022-11-15T00:51:04.148Z,11.45
2022-11-15T00:53:50.058Z,11.32
2022-11-15T00:56:35.795Z,11.41
2022-11-15T00:59:21.769Z,11.34
2022-11-15T01:02:07.481Z,11.30
2022-11-15T01:04:53.320Z,11.27
2022-11-15T01:07:39.150Z,10.86
2022-11-15T01:10:40.195Z,11.22
2022-11-15T01:13:26.019Z,11.04
2022-11-15T01:16:13.318Z,11.27
2022-11-15T01:18:59.222Z,11.37
2022-11-15T01:21:45.061Z,11.19
2022-11-15T01:24:30.892Z,11.35
2022-11-15T01:27:16.896Z,11.54
2022-11-15T01:30:02.704Z,11.55
2022-11-15T01:32:48.503Z,11.52
2022-11-15T01:35:34.422Z,11.46
2022-11-15T01:38:19.972Z,11.46
2022-11-15T01:41:05.874Z,11.44
2022-11-15T01:43:53.063Z,11.43
2022-11-15T01:46:38.540Z,10.97
2022-11-15T01:49:24.147Z,11.41
2022-11-15T01:52:14.922Z,11.24
2022-11-15T01:55:27.138Z,11.51
2022-11-15T01:58:13.142Z,11.47
2022-11-15T02:00:58.928Z,11.42
2022-11-15T02:03:50.779Z,11.54
2022-11-15T02:06:36.884Z,11.48
2022-11-15T02:09:22.704Z,11.28
2022-11-15T02:12:08.559Z,10.66
2022-11-15T02:14:54.591Z,11.24
2022-11-15T02:17:45.885Z,11.16
2022-11-15T02:20:41.077Z,11.56
2022-11-15T02:23:26.867Z,11.52
2022-11-15T02:26:12.954Z,11.64
2022-11-15T02:29:01.947Z,11.54
2022-11-15T02:31:50.335Z,11.17
2022-11-15T02:34:52.908Z,11.31
2022-11-15T02:37:38.434Z,11.59
2022-11-15T02:40:27.818Z,11.55
2022-11-15T02:43:32.780Z,11.23
2022-11-15T02:46:18.475Z,11.41
2022-11-15T02:49:04.092Z,11.64
2022-11-15T02:51:50.069Z,11.62
2022-11-15T02:54:35.547Z,11.55
2022-11-15T02:57:21.472Z,11.63
2022-11-15T03:00:07.135Z,11.62
2022-11-15T03:03:02.244Z,11.52
2022-11-15T03:05:47.612Z,11.49
2022-11-15T03:08:34.101Z,11.60
2022-11-15T03:11:20.092Z,11.70
2022-11-15T03:14:16.492Z,11.47
2022-11-15T03:17:17.668Z,11.68
2022-11-15T03:20:05.138Z,11.75
2022-11-15T03:22:50.977Z,11.73
2022-11-15T03:25:37.855Z,11.58
2022-11-15T03:28:24.663Z,11.36
2022-11-15T03:31:29.065Z,11.61
2022-11-15T03:34:17.404Z,11.55
2022-11-15T03:37:02.908Z,11.56
2022-11-15T03:39:48.398Z,11.68
2022-11-15T03:42:39.789Z,11.55
2022-11-15T03:45:30.149Z,11.62
2022-11-15T03:48:17.471Z,11.69
2022-11-15T03:51:03.915Z,11.71
2022-11-15T03:53:49.537Z,11.43
2022-11-15T03:56:35.157Z,11.72
2022-11-15T03:59:20.890Z,11.66
2022-11-15T04:02:06.621Z,11.72
2022-11-15T04:04:52.340Z,11.56
2022-11-15T04:07:38.249Z,11.75
2022-11-15T04:10:24.209Z,11.70
2022-11-15T04:13:10.085Z,11.88
2022-11-15T04:15:55.594Z,11.77
2022-11-15T04:18:41.250Z,11.61
2022-11-15T04:21:45.299Z,11.73
2022-11-15T04:24:31.199Z,11.78
2022-11-15T04:27:16.690Z,11.72
2022-11-15T04:30:02.426Z,11.79
2022-11-15T04:32:47.856Z,11.86
2022-11-15T04:35:33.834Z,11.71
2022-11-15T04:38:19.543Z,11.56
2022-11-15T04:41:04.935Z,11.69
2022-11-15T04:43:50.622Z,11.66
2022-11-15T04:46:36.454Z,11.53
2022-11-15T04:49:22.484Z,11.91
2022-11-15T04:52:08.298Z,12.01
2022-11-15T04:54:54.215Z,11.96
2022-11-15T04:57:40.030Z,11.85
2022-11-15T05:00:25.742Z,11.81
2022-11-15T05:03:30.548Z,11.82
2022-11-15T05:06:16.735Z,11.77
2022-11-15T05:09:02.212Z,11.72
2022-11-15T05:11:48.112Z,11.60
2022-11-15T05:14:33.874Z,11.76
2022-11-15T05:17:19.619Z,11.90
2022-11-15T05:20:05.463Z,11.68
2022-11-15T05:22:51.085Z,11.89
2022-11-15T05:25:37.224Z,11.93
2022-11-15T05:28:23.018Z,11.91
2022-11-15T05:31:09.293Z,12.02
2022-11-15T05:33:55.268Z,11.94
2022-11-15T05:36:44.121Z,11.76
2022-11-15T05:39:29.828Z,11.92
2022-11-15T05:42:15.539Z,11.87
2022-11-15T05:45:01.045Z,12.11
2022-11-15T05:47:46.474Z,12.04
2022-11-15T05:50:32.344Z,11.87
2022-11-15T05:53:18.666Z,11.97
2022-11-15T05:56:04.459Z,11.99
2022-11-15T05:58:50.306Z,12.08
2022-11-15T06:01:35.797Z,12.00
2022-11-15T06:04:21.221Z,12.07
2022-11-15T06:07:07.102Z,12.06
2022-11-15T06:09:53.060Z,12.21
2022-11-15T06:12:38.828Z,12.23
2022-11-15T06:15:24.344Z,12.25
2022-11-15T06:18:10.361Z,12.24
2022-11-15T06:20:59.351Z,12.17
2022-11-15T06:23:44.776Z,12.21
2022-11-15T06:26:30.634Z,12.24
2022-11-15T06:29:16.599Z,11.96
2022-11-15T06:32:02.330Z,11.30
2022-11-15T06:34:48.188Z,11.30
2022-11-15T06:37:34.424Z,11.92
2022-11-15T06:40:20.034Z,11.14
2022-11-15T06:43:06.412Z,11.47
2022-11-15T06:45:52.039Z,11.89
2022-11-15T06:48:37.910Z,11.76
2022-11-15T06:51:23.607Z,11.87
2022-11-15T06:54:09.432Z,11.54
2022-11-15T06:56:55.385Z,11.55
2022-11-15T06:59:41.146Z,11.59
2022-11-15T07:02:27.001Z,11.66
2022-11-15T07:05:13.113Z,11.93
2022-11-15T07:07:58.741Z,11.52
2022-11-15T07:10:44.298Z,12.15
2022-11-15T07:13:30.962Z,11.87
2022-11-15T07:16:16.638Z,11.93
2022-11-15T07:19:02.627Z,12.09
2022-11-15T07:21:48.569Z,12.30
2022-11-15T07:24:34.067Z,12.31
2022-11-15T07:27:20.000Z,12.53
2022-11-15T07:30:06.016Z,12.44
2022-11-15T07:32:58.331Z,12.63
2022-11-15T07:35:44.222Z,12.74
2022-11-15T07:38:30.126Z,12.09
2022-11-15T07:41:16.107Z,12.38
2022-11-15T07:44:02.637Z,12.40
2022-11-15T07:46:48.398Z,12.51
2022-11-15T07:49:34.205Z,12.40
2022-11-15T07:52:20.029Z,11.36
2022-11-15T07:55:06.020Z,11.68
2022-11-15T07:57:51.758Z,11.35
2022-11-15T08:00:37.167Z,12.03
2022-11-15T08:03:23.124Z,11.95
2022-11-15T08:06:08.913Z,11.29
2022-11-15T08:08:54.824Z,10.45
2022-11-15T08:11:40.888Z,10.12
2022-11-15T08:14:26.539Z,10.45
2022-11-15T08:17:12.327Z,11.07
2022-11-15T08:19:58.220Z,11.03
2022-11-15T08:22:44.029Z,10.93
2022-11-15T08:25:30.792Z,10.56
2022-11-15T08:28:17.194Z,10.88
2022-11-15T08:31:03.496Z,10.76
2022-11-15T08:33:49.042Z,9.99
2022-11-15T08:36:44.585Z,10.30
2022-11-15T08:39:31.769Z,9.97
2022-11-15T08:42:19.914Z,11.28
2022-11-15T08:45:06.420Z,10.94
2022-11-15T08:47:54.420Z,9.88
2022-11-15T08:50:40.941Z,10.54
2022-11-15T08:53:26.631Z,10.40
2022-11-15T08:56:12.880Z,10.07
2022-11-15T08:58:58.631Z,10.17
2022-11-15T09:01:44.457Z,10.53
2022-11-15T09:04:30.305Z,10.28
2022-11-15T09:07:16.203Z,9.56
2022-11-15T09:10:02.280Z,10.25
2022-11-15T09:12:49.548Z,10.57
2022-11-15T09:15:35.397Z,10.28
2022-11-15T09:18:23.479Z,9.94
2022-11-15T09:21:09.305Z,9.15
2022-11-15T09:23:55.004Z,9.94
2022-11-15T09:26:41.142Z,9.98
2022-11-15T09:29:26.984Z,10.68
2022-11-15T09:32:12.576Z,10.70
2022-11-15T09:34:58.453Z,10.36
2022-11-15T09:37:43.925Z,10.58
2022-11-15T09:40:30.679Z,10.28
2022-11-15T09:43:30.285Z,10.76
2022-11-15T09:46:18.567Z,10.62
2022-11-15T09:48:50.408Z,10.11
2022-11-15T09:51:25.276Z,10.75
2022-11-15T09:54:30.886Z,9.62
2022-11-15T09:56:44.741Z,10.65
2022-11-15T09:59:16.367Z,10.71
2022-11-15T10:01:43.612Z,10.58
2022-11-15T10:04:12.142Z,11.03
2022-11-15T10:06:40.461Z,10.69
2022-11-15T10:09:11.070Z,10.66
2022-11-15T10:11:39.603Z,10.88
2022-11-15T10:14:12.438Z,10.87
2022-11-15T10:16:52.107Z,10.54
2022-11-15T10:19:38.137Z,10.69
2022-11-15T10:22:11.347Z,11.00
2022-11-15T10:24:40.713Z,10.62
2022-11-15T10:27:12.439Z,10.65
2022-11-15T10:29:43.632Z,11.16
2022-11-15T10:32:15.282Z,11.04
2022-11-15T10:34:42.600Z,11.01
2022-11-15T10:37:09.863Z,11.32
2022-11-15T10:39:37.311Z,10.96
2022-11-15T10:42:28.345Z,9.69
2022-11-15T10:44:55.891Z,10.31
2022-11-15T10:47:26.236Z,11.13
2022-11-15T10:49:54.680Z,11.41
2022-11-15T10:52:23.190Z,11.68
2022-11-15T10:54:53.172Z,10.90
2022-11-15T10:57:22.575Z,11.00
2022-11-15T10:59:51.017Z,11.85
2022-11-15T11:02:27.918Z,11.54
2022-11-15T11:04:55.360Z,11.94
2022-11-15T11:07:24.405Z,11.70
2022-11-15T11:10:50.338Z,11.49
2022-11-15T11:13:35.003Z,11.17
2022-11-15T11:16:14.309Z,10.97
2022-11-15T11:18:45.183Z,11.69
2022-11-15T11:21:14.562Z,11.28
2022-11-15T11:23:55.584Z,11.47
2022-11-15T11:26:30.931Z,10.55
2022-11-15T11:29:17.330Z,11.42
2022-11-15T11:31:48.629Z,11.65
2022-11-15T11:34:22.234Z,11.61
2022-11-15T11:37:06.314Z,11.49
2022-11-15T11:39:52.689Z,11.63
2022-11-15T11:42:38.645Z,10.85
2022-11-15T11:45:06.126Z,10.97
2022-11-15T11:47:34.813Z,11.64
2022-11-15T11:50:03.591Z,10.51
2022-11-15T11:52:32.469Z,10.40
2022-11-15T11:55:02.029Z,11.16
2022-11-15T11:57:31.998Z,11.59
2022-11-15T12:00:05.407Z,11.63
2022-11-15T12:02:40.531Z,11.36
2022-11-15T12:05:13.228Z,11.66
2022-11-15T12:07:40.594Z,11.78
2022-11-15T12:10:24.577Z,11.72
2022-11-15T12:12:55.279Z,10.37
2022-11-15T12:15:29.251Z,11.10
2022-11-15T12:17:56.718Z,10.79
2022-11-15T12:20:28.311Z,11.39
2022-11-15T12:23:01.515Z,11.46
2022-11-15T12:25:38.384Z,12.04
2022-11-15T12:28:12.958Z,11.85
2022-11-15T12:30:51.424Z,12.11
2022-11-15T12:33:30.826Z,11.53
2022-11-15T12:35:59.670Z,10.70
2022-11-15T12:39:02.195Z,9.84
2022-11-15T12:41:30.943Z,10.82
2022-11-15T12:44:00.014Z,10.53
2022-11-15T12:46:30.091Z,11.46
2022-11-15T12:48:58.880Z,11.83
2022-11-15T12:51:44.696Z,11.14
2022-11-15T12:54:24.600Z,11.78
2022-11-15T12:57:04.243Z,11.70
2022-11-15T12:59:50.298Z,11.28
2022-11-15T13:02:40.903Z,11.78
2022-11-15T13:05:14.398Z,11.04
2022-11-15T13:07:41.702Z,10.52
2022-11-15T13:10:15.221Z,10.44
2022-11-15T13:12:45.558Z,10.51
2022-11-15T13:15:13.103Z,11.25
2022-11-15T13:17:46.282Z,11.10
2022-11-15T13:20:16.405Z,11.89
2022-11-15T13:22:55.801Z,11.76
2022-11-15T13:25:32.717Z,10.83
2022-11-15T13:28:05.020Z,11.85
2022-11-15T13:30:35.135Z,10.79
2022-11-15T13:33:08.041Z,11.86
2022-11-15T13:35:37.325Z,12.23
2022-11-15T13:38:05.248Z,11.64
2022-11-15T13:40:36.104Z,11.85
2022-11-15T13:43:38.898Z,12.33
2022-11-15T13:46:06.232Z,11.30
2022-11-15T13:48:35.059Z,12.16
2022-11-15T13:51:05.745Z,12.44
2022-11-15T13:53:33.682Z,12.34
2022-11-15T13:56:01.223Z,12.63
2022-11-15T13:58:28.485Z,12.16
2022-11-15T14:00:59.795Z,11.54
2022-11-15T14:03:34.101Z,10.57
2022-11-15T14:06:01.272Z,11.84
2022-11-15T14:08:28.811Z,11.26
2022-11-15T14:11:16.242Z,12.16
2022-11-15T14:13:43.938Z,11.94
2022-11-15T14:16:14.300Z,11.93
2022-11-15T14:18:43.008Z,11.67
2022-11-15T14:21:10.541Z,11.25
2022-11-15T14:23:37.790Z,11.63
2022-11-15T14:26:11.301Z,12.62
2022-11-15T14:28:40.356Z,12.34
2022-11-15T14:31:10.656Z,10.58
2022-11-15T14:33:38.299Z,11.95
2022-11-15T14:36:11.735Z,11.65
2022-11-15T14:38:38.970Z,10.87
2022-11-15T14:41:06.910Z,10.98
2022-11-15T14:43:34.225Z,11.29
2022-11-15T14:46:01.531Z,11.33
2022-11-15T14:48:29.986Z,11.31
2022-11-15T14:50:57.580Z,11.78
2022-11-15T14:53:24.994Z,11.21
2022-11-15T14:55:52.504Z,11.51
2022-11-15T14:58:19.944Z,11.48
2022-11-15T15:00:47.185Z,11.47
2022-11-15T15:03:14.713Z,12.56
2022-11-15T15:05:42.742Z,12.57
2022-11-15T15:08:10.284Z,13.10
2022-11-15T15:10:40.968Z,12.98
2022-11-15T15:13:26.597Z,11.88
2022-11-15T15:15:54.153Z,12.79
2022-11-15T15:18:21.570Z,13.16
2022-11-15T15:20:50.555Z,12.41
2022-11-15T15:23:18.911Z,13.03
2022-11-15T15:25:47.022Z,13.12
2022-11-15T15:28:14.403Z,13.16
2022-11-15T15:30:42.034Z,13.07
2022-11-15T15:33:09.267Z,12.46
2022-11-15T15:35:36.471Z,13.28
2022-11-15T15:38:04.392Z,13.17
2022-11-15T15:40:32.306Z,13.62
2022-11-15T15:42:59.888Z,13.79
2022-11-15T15:45:28.635Z,12.29
2022-11-15T15:47:56.072Z,13.20
2022-11-15T15:50:24.744Z,12.19
2022-11-15T15:52:52.970Z,12.36
2022-11-15T15:55:20.357Z,11.62
2022-11-15T15:57:47.981Z,12.78
2022-11-15T16:00:15.647Z,11.87
2022-11-15T16:02:43.263Z,10.95
2022-11-15T16:05:10.822Z,12.22
2022-11-15T16:07:38.251Z,13.12
2022-11-15T16:10:18.196Z,13.30
2022-11-15T16:12:46.012Z,11.28
2022-11-15T16:15:13.531Z,13.13
2022-11-15T16:17:41.892Z,12.59
2022-11-15T16:20:14.240Z,13.11
2022-11-15T16:22:41.767Z,13.33
2022-11-15T16:25:09.162Z,13.04
2022-11-15T16:27:38.350Z,13.50
2022-11-15T16:30:06.142Z,13.48
2022-11-15T16:32:33.966Z,13.89
2022-11-15T16:35:01.267Z,13.17
2022-11-15T16:37:29.767Z,13.00
2022-11-15T16:40:00.821Z,12.78
2022-11-15T16:42:28.724Z,12.05
2022-11-15T16:44:55.982Z,12.02
2022-11-15T16:47:23.717Z,12.54
2022-11-15T16:49:51.226Z,12.66
2022-11-15T16:52:21.412Z,13.07
2022-11-15T16:54:48.937Z,12.65
2022-11-15T16:57:16.671Z,12.28
2022-11-15T16:59:43.972Z,13.18
2022-11-15T17:02:14.125Z,11.91
2022-11-15T17:04:41.685Z,12.98
2022-11-15T17:07:08.942Z,13.18
2022-11-15T17:09:36.156Z,13.45
2022-11-15T17:12:03.888Z,12.32
2022-11-15T17:14:31.090Z,12.97
2022-11-15T17:16:58.293Z,12.51
2022-11-15T17:19:25.791Z,12.16
2022-11-15T17:21:53.853Z,12.24
2022-11-15T17:24:21.427Z,12.91
2022-11-15T17:26:49.004Z,13.25
2022-11-15T17:29:16.251Z,13.16
2022-11-15T17:31:44.357Z,13.05
2022-11-15T17:34:12.031Z,12.26
2022-11-15T17:36:39.342Z,13.31
2022-11-15T17:39:06.639Z,13.38
2022-11-15T17:41:34.488Z,13.20
2022-11-15T17:44:03.625Z,12.98
2022-11-15T17:46:31.114Z,13.45
2022-11-15T17:48:59.491Z,13.51
2022-11-15T17:51:26.743Z,13.63
2022-11-15T17:53:54.581Z,13.57
2022-11-15T17:56:23.075Z,13.20
2022-11-15T17:58:50.287Z,13.17
2022-11-15T18:01:22.760Z,13.46
2022-11-15T18:03:50.839Z,12.57
2022-11-15T18:06:18.617Z,13.32
2022-11-15T18:08:46.601Z,13.62
2022-11-15T18:11:14.416Z,13.50
2022-11-15T18:13:42.553Z,13.52
2022-11-15T18:16:11.235Z,13.22
2022-11-15T18:18:38.782Z,13.42
2022-11-15T18:21:13.309Z,13.40
2022-11-15T18:23:41.696Z,13.49
2022-11-15T18:26:10.400Z,13.45
2022-11-15T18:28:38.806Z,13.46
2022-11-15T18:31:13.917Z,13.31
2022-11-15T18:33:41.685Z,13.41
2022-11-15T18:36:10.439Z,13.27
2022-11-15T18:38:37.657Z,13.22
2022-11-15T18:41:05.903Z,13.26
2022-11-15T18:43:33.776Z,13.03
2022-11-15T18:46:05.061Z,13.24
2022-11-15T18:48:32.828Z,13.42
2022-11-15T18:51:05.478Z,13.24
2022-11-15T18:53:33.294Z,13.43
2022-11-15T18:56:06.803Z,13.14
2022-11-15T18:58:35.135Z,13.10
2022-11-15T19:01:10.711Z,12.78
2022-11-15T19:03:39.108Z,13.05
2022-11-15T19:06:08.398Z,13.07
2022-11-15T19:08:36.793Z,12.61
2022-11-15T19:11:05.017Z,12.62
2022-11-15T19:13:32.858Z,12.47
2022-11-15T19:16:01.049Z,12.77
2022-11-15T19:18:28.607Z,12.42
2022-11-15T19:20:56.578Z,12.49
2022-11-15T19:23:23.925Z,12.38
2022-11-15T19:25:55.394Z,12.64
2022-11-15T19:28:22.955Z,12.55
2022-11-15T19:30:50.399Z,12.46
2022-11-15T19:33:18.141Z,12.57
2022-11-15T19:35:45.778Z,12.79
2022-11-15T19:38:13.248Z,12.79
2022-11-15T19:40:40.409Z,12.72
2022-11-15T19:43:07.863Z,12.51
2022-11-15T19:45:35.191Z,12.43
2022-11-15T19:48:02.494Z,12.06
2022-11-15T19:50:30.446Z,12.29
2022-11-15T19:52:58.527Z,12.55
2022-11-15T19:55:26.000Z,12.12
2022-11-15T19:57:53.571Z,12.23
2022-11-15T20:00:20.822Z,11.83
2022-11-15T20:02:48.473Z,12.32
2022-11-15T20:05:18.525Z,12.13
2022-11-15T20:07:48.167Z,11.85
2022-11-15T20:10:20.587Z,12.03
2022-11-15T20:12:48.391Z,12.37
2022-11-15T20:15:16.033Z,12.49
2022-11-15T20:17:43.319Z,12.47
2022-11-15T20:20:11.677Z,12.50
2022-11-15T20:22:39.187Z,12.69
2022-11-15T20:25:06.486Z,12.64
2022-11-15T20:27:33.792Z,12.39
2022-11-15T20:30:01.292Z,11.98
2022-11-15T20:32:28.717Z,12.53
2022-11-15T20:34:55.959Z,12.72
2022-11-15T20:37:23.615Z,12.77
2022-11-15T20:39:50.907Z,12.10
2022-11-15T20:42:18.186Z,11.81
2022-11-15T20:44:45.713Z,12.30
2022-11-15T20:47:12.939Z,12.65
2022-11-15T20:49:40.181Z,12.59
2022-11-15T20:52:07.648Z,12.31
2022-11-15T20:54:34.983Z,12.39
2022-11-15T20:57:02.210Z,10.85
2022-11-15T20:59:30.367Z,12.12
2022-11-15T21:01:57.620Z,12.27
2022-11-15T21:04:24.944Z,12.23
2022-11-15T21:06:52.784Z,12.28
2022-11-15T21:09:38.917Z,12.29
2022-11-15T21:12:12.372Z,12.57
2022-11-15T21:14:40.250Z,12.63
2022-11-15T21:17:08.152Z,12.56
2022-11-15T21:19:37.042Z,12.56
2022-11-15T21:22:05.158Z,12.59
2022-11-15T21:24:32.720Z,12.82
2022-11-15T21:26:59.968Z,12.81
2022-11-15T21:29:28.584Z,12.75
2022-11-15T21:31:56.185Z,12.71
2022-11-15T21:34:23.369Z,12.90
2022-11-15T21:36:50.575Z,12.99
2022-11-15T21:39:18.128Z,13.08
2022-11-15T21:41:45.383Z,13.02
2022-11-15T21:44:12.576Z,13.08
2022-11-15T21:46:40.095Z,12.89
2022-11-15T21:49:07.282Z,12.95
2022-11-15T21:51:34.631Z,12.81
2022-11-15T21:54:02.269Z,12.95
2022-11-15T21:56:29.664Z,12.94
2022-11-15T21:58:56.913Z,12.63
2022-11-15T22:01:43.486Z,12.81
2022-11-15T22:04:11.054Z,12.91
2022-11-15T22:06:38.433Z,13.00
2022-11-15T22:09:05.864Z,12.99
2022-11-15T22:11:33.399Z,12.98
2022-11-15T22:14:00.805Z,12.62
2022-11-15T22:16:28.036Z,12.71
2022-11-15T22:18:55.644Z,12.64
2022-11-15T22:21:22.963Z,11.96
2022-11-15T22:23:50.326Z,11.43
2022-11-15T22:26:23.185Z,12.16
2022-11-15T22:28:50.908Z,12.01
2022-11-15T22:31:18.442Z,11.29
2022-11-15T22:33:45.926Z,11.62
2022-11-15T22:36:13.180Z,11.91
2022-11-15T22:38:40.813Z,11.84
2022-11-15T22:41:08.192Z,12.02
2022-11-15T22:43:35.469Z,12.14
2022-11-15T22:46:03.637Z,12.13
2022-11-15T22:48:32.098Z,12.13
2022-11-15T22:50:59.889Z,11.27
2022-11-15T22:53:27.580Z,11.73
2022-11-15T22:55:58.596Z,12.17
2022-11-15T22:58:26.517Z,12.32
2022-11-15T23:00:55.664Z,11.74
2022-11-15T23:03:23.457Z,11.80
2022-11-15T23:05:50.927Z,11.75
2022-11-15T23:08:18.660Z,12.24
2022-11-15T23:11:04.645Z,11.89
2022-11-15T23:13:32.719Z,12.41
2022-11-15T23:16:19.674Z,12.47
2022-11-15T23:19:09.353Z,12.18
2022-11-15T23:22:15.415Z,12.07
2022-11-15T23:25:02.919Z,12.20
2022-11-15T23:27:30.117Z,12.27
2022-11-15T23:30:16.346Z,12.17
2022-11-15T23:33:02.054Z,12.20
2022-11-15T23:35:29.557Z,11.62
2022-11-15T23:37:56.952Z,11.27
2022-11-15T23:40:24.198Z,11.69
2022-11-15T23:42:51.766Z,11.84
2022-11-15T23:45:19.007Z,12.12
2022-11-15T23:47:46.229Z,11.69
2022-11-15T23:50:13.822Z,10.69
2022-11-15T23:52:41.054Z,11.32
2022-11-15T23:55:08.468Z,11.88
2022-11-15T23:57:36.035Z,12.03
